createdAt,value
2022-11-14T00:00:49.934Z,10.93
2022-11-14T00:03:34.949Z,11.03
2022-11-14T00:06:20.171Z,11.87
2022-11-14T00:09:05.385Z,10.43
2022-11-14T00:11:50.141Z,10.80
2022-11-14T00:14:35.586Z,10.97
2022-11-14T00:17:20.479Z,10.37
2022-11-14T00:20:07.598Z,10.87
2022-11-14T00:22:52.810Z,11.03
2022-11-14T00:25:37.670Z,11.53
2022-11-14T00:28:22.488Z,12.50
2022-11-14T00:31:08.041Z,13.60
2022-11-14T00:33:53.137Z,12.90
2022-11-14T00:36:38.058Z,12.53
2022-11-14T00:39:23.126Z,12.83
2022-11-14T00:42:08.881Z,12.30
2022-11-14T00:44:53.994Z,12.93
2022-11-14T00:47:39.363Z,14.40
2022-11-14T00:50:24.440Z,14.30
2022-11-14T00:53:09.495Z,14.50
2022-11-14T00:55:54.656Z,14.00
2022-11-14T00:58:39.560Z,14.30
2022-11-14T01:01:24.639Z,14.00
2022-11-14T01:04:09.513Z,14.20
2022-11-14T01:06:54.765Z,13.80
2022-11-14T01:09:39.812Z,14.27
2022-11-14T01:12:24.654Z,13.93
2022-11-14T01:15:10.048Z,12.77
2022-11-14T01:17:54.881Z,13.43
2022-11-14T01:20:41.276Z,13.50
2022-11-14T01:23:26.081Z,13.00
2022-11-14T01:26:13.266Z,13.50
2022-11-14T01:28:58.157Z,13.50
2022-11-14T01:31:42.975Z,11.67
2022-11-14T01:34:29.434Z,12.03
2022-11-14T01:37:14.519Z,10.87
2022-11-14T01:39:59.600Z,11.20
2022-11-14T01:43:18.991Z,10.97
2022-11-14T01:46:05.071Z,10.93
2022-11-14T01:49:08.830Z,9.97
2022-11-14T01:52:07.053Z,10.47
2022-11-14T01:54:55.010Z,10.10
2022-11-14T01:57:44.209Z,9.63
2022-11-14T02:00:29.319Z,10.47
2022-11-14T02:03:15.301Z,10.57
2022-11-14T02:06:02.915Z,10.80
2022-11-14T02:08:49.066Z,10.33
2022-11-14T02:11:42.101Z,10.13
2022-11-14T02:14:29.056Z,10.47
2022-11-14T02:17:31.675Z,9.77
2022-11-14T02:20:28.525Z,11.60
2022-11-14T02:23:13.532Z,10.50
2022-11-14T02:25:59.420Z,10.10
2022-11-14T02:28:45.135Z,10.73
2022-11-14T02:31:30.249Z,10.37
2022-11-14T02:34:19.726Z,10.77
2022-11-14T02:37:05.514Z,11.43
2022-11-14T02:39:50.545Z,10.33
2022-11-14T02:42:35.509Z,11.40
2022-11-14T02:45:21.052Z,12.30
2022-11-14T02:48:06.576Z,12.83
2022-11-14T02:50:51.731Z,12.43
2022-11-14T02:53:36.637Z,12.53
2022-11-14T02:56:21.435Z,13.37
2022-11-14T02:59:06.408Z,12.83
2022-11-14T03:01:51.342Z,13.00
2022-11-14T03:04:36.643Z,12.70
2022-11-14T03:07:21.548Z,12.43
2022-11-14T03:10:07.851Z,13.03
2022-11-14T03:12:54.730Z,12.43
2022-11-14T03:15:39.606Z,12.80
2022-11-14T03:18:24.855Z,13.00
2022-11-14T03:21:12.322Z,13.13
2022-11-14T03:23:57.402Z,12.17
2022-11-14T03:26:42.621Z,12.57
2022-11-14T03:29:27.840Z,12.90
2022-11-14T03:32:13.090Z,13.03
2022-11-14T03:34:58.858Z,13.97
2022-11-14T03:37:44.069Z,13.20
2022-11-14T03:40:29.131Z,12.83
2022-11-14T03:43:14.150Z,13.10
2022-11-14T03:46:03.250Z,13.73
2022-11-14T03:48:48.462Z,12.70
2022-11-14T03:51:33.594Z,13.87
2022-11-14T03:54:18.577Z,13.90
2022-11-14T03:57:03.468Z,14.10
2022-11-14T03:59:48.755Z,12.97
2022-11-14T04:02:33.929Z,13.47
2022-11-14T04:05:19.012Z,13.60
2022-11-14T04:08:07.516Z,14.00
2022-11-14T04:10:52.443Z,14.13
2022-11-14T04:13:37.669Z,14.90
2022-11-14T04:16:23.239Z,15.33
2022-11-14T04:19:08.126Z,14.97
2022-11-14T04:21:53.085Z,14.90
2022-11-14T04:24:37.807Z,15.30
2022-11-14T04:27:22.808Z,15.03
2022-11-14T04:30:11.725Z,14.63
2022-11-14T04:32:57.009Z,15.70
2022-11-14T04:35:42.014Z,15.43
2022-11-14T04:38:27.375Z,14.83
2022-11-14T04:41:12.635Z,13.30
2022-11-14T04:43:57.483Z,14.07
2022-11-14T04:46:42.347Z,14.50
2022-11-14T04:49:27.427Z,15.57
2022-11-14T04:52:12.501Z,13.93
2022-11-14T04:54:57.724Z,14.37
2022-11-14T04:57:42.835Z,15.87
2022-11-14T05:00:28.030Z,15.40
2022-11-14T05:03:13.055Z,16.00
2022-11-14T05:06:01.083Z,16.77
2022-11-14T05:08:46.340Z,17.10
2022-11-14T05:11:31.547Z,16.53
2022-11-14T05:14:16.419Z,15.67
2022-11-14T05:17:01.539Z,16.87
2022-11-14T05:19:46.436Z,16.83
2022-11-14T05:22:31.363Z,16.60
2022-11-14T05:25:16.300Z,17.90
2022-11-14T05:28:01.769Z,17.30
2022-11-14T05:30:46.791Z,17.83
2022-11-14T05:33:31.706Z,18.30
2022-11-14T05:36:17.306Z,18.17
2022-11-14T05:39:02.557Z,17.77
2022-11-14T05:41:47.747Z,16.77
2022-11-14T05:44:32.683Z,17.33
2022-11-14T05:47:17.462Z,17.80
2022-11-14T05:50:03.018Z,17.57
2022-11-14T05:52:48.417Z,17.30
2022-11-14T05:55:33.483Z,18.70
2022-11-14T05:58:18.996Z,17.77
2022-11-14T06:01:14.678Z,18.30
2022-11-14T06:03:59.877Z,18.37
2022-11-14T06:06:44.901Z,17.53
2022-11-14T06:09:30.089Z,17.80
2022-11-14T06:12:14.968Z,16.87
2022-11-14T06:14:59.988Z,17.70
2022-11-14T06:17:45.726Z,17.60
2022-11-14T06:20:30.774Z,18.30
2022-11-14T06:23:18.422Z,18.33
2022-11-14T06:26:08.067Z,19.13
2022-11-14T06:28:53.768Z,18.57
2022-11-14T06:31:38.871Z,19.07
2022-11-14T06:34:23.666Z,19.70
2022-11-14T06:37:08.804Z,19.67
2022-11-14T06:39:54.054Z,19.27
2022-11-14T06:42:38.770Z,17.80
2022-11-14T06:45:23.747Z,18.23
2022-11-14T06:48:09.057Z,18.53
2022-11-14T06:50:55.915Z,19.77
2022-11-14T06:53:42.351Z,18.50
2022-11-14T06:56:27.168Z,18.90
2022-11-14T06:59:12.067Z,19.27
2022-11-14T07:01:57.035Z,18.27
2022-11-14T07:04:41.990Z,19.57
2022-11-14T07:07:28.845Z,20.63
2022-11-14T07:10:14.012Z,19.20
2022-11-14T07:12:59.004Z,17.27
2022-11-14T07:15:51.998Z,19.23
2022-11-14T07:18:39.614Z,18.57
2022-11-14T07:21:29.861Z,18.93
2022-11-14T07:24:14.966Z,18.83
2022-11-14T07:27:00.090Z,17.97
2022-11-14T07:29:45.285Z,16.53
2022-11-14T07:32:30.324Z,15.43
2022-11-14T07:35:15.395Z,14.50
2022-11-14T07:38:04.246Z,14.47
2022-11-14T07:41:12.628Z,13.57
2022-11-14T07:43:57.530Z,13.80
2022-11-14T07:46:42.597Z,14.17
2022-11-14T07:49:27.487Z,13.40
2022-11-14T07:52:12.339Z,14.60
2022-11-14T07:54:57.248Z,14.83
2022-11-14T07:57:47.911Z,14.47
2022-11-14T08:00:34.127Z,14.60
2022-11-14T08:03:19.299Z,13.43
2022-11-14T08:06:06.689Z,14.37
2022-11-14T08:08:51.585Z,14.03
2022-11-14T08:11:48.733Z,13.40
2022-11-14T08:14:34.508Z,13.90
2022-11-14T08:17:21.290Z,14.80
2022-11-14T08:20:08.504Z,15.33
2022-11-14T08:22:54.960Z,13.90
2022-11-14T08:25:41.296Z,14.03
2022-11-14T08:28:26.995Z,13.77
2022-11-14T08:31:13.594Z,14.70
2022-11-14T08:33:58.882Z,14.77
2022-11-14T08:36:43.918Z,14.87
2022-11-14T08:39:29.274Z,13.47
2022-11-14T08:42:14.279Z,15.30
2022-11-14T08:44:59.484Z,13.57
2022-11-14T08:47:51.232Z,13.93
2022-11-14T08:50:36.023Z,16.03
2022-11-14T08:53:20.940Z,14.97
2022-11-14T08:56:06.319Z,14.00
2022-11-14T08:58:51.370Z,12.67
2022-11-14T09:01:36.482Z,13.30
2022-11-14T09:04:21.664Z,13.57
2022-11-14T09:07:07.210Z,12.80
2022-11-14T09:09:52.511Z,12.73
2022-11-14T09:12:37.434Z,13.00
2022-11-14T09:15:22.358Z,12.07
2022-11-14T09:18:07.327Z,14.40
2022-11-14T09:20:52.340Z,13.50
2022-11-14T09:23:37.058Z,14.10
2022-11-14T09:26:22.243Z,14.47
2022-11-14T09:29:08.770Z,22.30
2022-11-14T09:31:55.055Z,12.67
2022-11-14T09:34:42.988Z,34.87
2022-11-14T09:37:28.328Z,15.87
2022-11-14T09:40:14.374Z,15.33
2022-11-14T09:43:13.304Z,26.57
2022-11-14T09:45:58.312Z,14.67
2022-11-14T09:48:43.286Z,13.10
2022-11-14T09:51:33.779Z,12.10
2022-11-14T09:54:23.109Z,17.23
2022-11-14T09:57:17.148Z,11.23
2022-11-14T10:00:02.595Z,10.87
2022-11-14T10:03:08.655Z,11.63
2022-11-14T10:06:11.760Z,11.87
2022-11-14T10:09:36.383Z,11.80
2022-11-14T10:12:27.267Z,9.87
2022-11-14T10:15:17.812Z,11.10
2022-11-14T10:18:17.662Z,10.23
2022-11-14T10:21:20.723Z,10.60
2022-11-14T10:24:24.784Z,9.30
2022-11-14T10:27:24.174Z,10.90
2022-11-14T10:30:13.825Z,10.10
2022-11-14T10:33:21.096Z,10.20
2022-11-14T10:36:36.093Z,10.37
2022-11-14T10:39:44.672Z,9.70
2022-11-14T10:42:39.624Z,9.23
2022-11-14T10:45:37.255Z,8.93
2022-11-14T10:48:44.293Z,9.30
2022-11-14T10:51:36.435Z,10.27
2022-11-14T10:54:33.791Z,10.20
2022-11-14T10:57:20.950Z,10.17
2022-11-14T11:00:15.770Z,9.40
2022-11-14T11:03:00.957Z,9.97
2022-11-14T11:05:52.095Z,9.50
2022-11-14T11:09:02.477Z,9.10
2022-11-14T11:11:59.028Z,9.40
2022-11-14T11:14:48.961Z,8.93
2022-11-14T11:17:40.100Z,8.97
2022-11-14T11:20:37.236Z,9.47
2022-11-14T11:23:27.666Z,8.73
2022-11-14T11:26:30.156Z,10.13
2022-11-14T11:29:18.251Z,10.13
2022-11-14T11:32:03.208Z,9.60
2022-11-14T11:34:48.235Z,9.10
2022-11-14T11:37:40.165Z,9.07
2022-11-14T11:40:27.222Z,9.70
2022-11-14T11:43:41.850Z,9.97
2022-11-14T11:46:36.961Z,8.83
2022-11-14T11:49:40.867Z,8.87
2022-11-14T11:52:48.726Z,8.60
2022-11-14T11:55:39.803Z,8.73
2022-11-14T11:58:49.322Z,9.17
2022-11-14T12:01:34.278Z,9.27
2022-11-14T12:04:19.564Z,8.57
2022-11-14T12:07:14.745Z,9.60
2022-11-14T12:10:10.854Z,8.20
2022-11-14T12:13:22.892Z,8.43
2022-11-14T12:16:23.572Z,8.87
2022-11-14T12:19:20.834Z,9.23
2022-11-14T12:22:29.167Z,8.97
2022-11-14T12:25:38.317Z,8.67
2022-11-14T12:28:48.347Z,8.63
2022-11-14T12:31:37.440Z,9.23
2022-11-14T12:34:33.239Z,7.83
2022-11-14T12:37:30.573Z,7.73
2022-11-14T12:40:32.469Z,6.83
2022-11-14T12:43:37.286Z,7.50
2022-11-14T12:46:23.000Z,6.90
2022-11-14T12:49:45.706Z,7.90
2022-11-14T12:52:54.815Z,7.47
2022-11-14T12:55:45.996Z,7.37
2022-11-14T12:58:57.120Z,7.43
2022-11-14T13:01:51.592Z,7.27
2022-11-14T13:04:43.076Z,7.83
2022-11-14T13:07:37.190Z,7.63
2022-11-14T13:10:31.593Z,7.10
2022-11-14T13:13:36.186Z,8.17
2022-11-14T13:16:50.546Z,8.33
2022-11-14T13:20:03.348Z,8.37
2022-11-14T13:22:48.495Z,7.67
2022-11-14T13:25:33.597Z,8.50
2022-11-14T13:28:37.360Z,7.47
2022-11-14T13:31:23.640Z,8.17
2022-11-14T13:34:32.847Z,8.17
2022-11-14T13:37:31.728Z,8.10
2022-11-14T13:40:51.938Z,7.70
2022-11-14T13:43:50.943Z,8.53
2022-11-14T13:47:08.733Z,7.73
2022-11-14T13:50:03.698Z,8.20
2022-11-14T13:52:49.494Z,8.57
2022-11-14T13:55:47.535Z,8.70
2022-11-14T13:59:00.252Z,8.50
2022-11-14T14:02:07.272Z,8.53
2022-11-14T14:05:15.985Z,8.50
2022-11-14T14:08:24.202Z,10.03
2022-11-14T14:11:18.434Z,9.70
2022-11-14T14:14:34.608Z,9.03
2022-11-14T14:17:33.481Z,9.50
2022-11-14T14:20:49.712Z,10.13
2022-11-14T14:23:53.041Z,8.83
2022-11-14T14:26:56.790Z,9.23
2022-11-14T14:29:56.139Z,9.50
2022-11-14T14:32:41.316Z,8.90
2022-11-14T14:35:29.580Z,9.03
2022-11-14T14:38:24.701Z,8.73
2022-11-14T14:41:14.113Z,9.47
2022-11-14T14:44:00.079Z,9.20
2022-11-14T14:46:45.341Z,8.80
2022-11-14T14:49:36.100Z,9.07
2022-11-14T14:52:39.144Z,9.43
2022-11-14T14:55:26.172Z,9.57
2022-11-14T14:58:23.845Z,9.50
2022-11-14T15:01:13.918Z,9.77
2022-11-14T15:04:06.624Z,9.67
2022-11-14T15:06:51.981Z,9.37
2022-11-14T15:09:36.743Z,10.10
2022-11-14T15:12:24.944Z,10.80
2022-11-14T15:15:15.360Z,10.47
2022-11-14T15:18:07.075Z,9.50
2022-11-14T15:21:11.092Z,10.20
2022-11-14T15:24:25.697Z,9.37
2022-11-14T15:27:16.015Z,9.07
2022-11-14T15:30:03.918Z,9.77
2022-11-14T15:33:00.982Z,9.60
2022-11-14T15:35:46.089Z,8.80
2022-11-14T15:38:43.878Z,9.23
2022-11-14T15:41:36.147Z,8.43
2022-11-14T15:44:32.944Z,9.60
2022-11-14T15:47:22.411Z,9.20
2022-11-14T15:50:13.258Z,9.37
2022-11-14T15:53:06.159Z,9.30
2022-11-14T15:55:51.371Z,9.23
2022-11-14T15:58:36.481Z,9.83
2022-11-14T16:01:26.117Z,9.03
2022-11-14T16:04:19.989Z,9.20
2022-11-14T16:07:05.790Z,8.23
2022-11-14T16:09:51.294Z,8.40
2022-11-14T16:12:36.188Z,8.43
2022-11-14T16:15:21.880Z,8.70
2022-11-14T16:18:06.915Z,8.77
2022-11-14T16:20:52.057Z,8.97
2022-11-14T16:23:36.868Z,8.53
2022-11-14T16:26:21.880Z,8.53
2022-11-14T16:29:07.786Z,8.20
2022-11-14T16:31:53.825Z,8.60
2022-11-14T16:34:39.001Z,9.37
2022-11-14T16:37:25.163Z,9.27
2022-11-14T16:40:16.182Z,11.07
2022-11-14T16:43:01.011Z,9.10
2022-11-14T16:45:45.829Z,9.10
2022-11-14T16:48:30.786Z,9.17
2022-11-14T16:51:46.172Z,8.33
2022-11-14T16:54:20.949Z,8.23
2022-11-14T16:57:06.308Z,8.97
2022-11-14T16:59:51.731Z,9.17
2022-11-14T17:02:36.626Z,7.97
2022-11-14T17:05:21.521Z,8.37
2022-11-14T17:08:06.652Z,9.03
2022-11-14T17:10:51.441Z,9.33
2022-11-14T17:13:37.535Z,9.17
2022-11-14T17:16:23.022Z,8.33
2022-11-14T17:19:08.127Z,8.70
2022-11-14T17:21:53.299Z,8.70
2022-11-14T17:24:39.479Z,8.33
2022-11-14T17:27:25.821Z,9.37
2022-11-14T17:30:12.546Z,8.97
2022-11-14T17:32:57.725Z,8.60
2022-11-14T17:35:43.441Z,8.53
2022-11-14T17:38:31.883Z,8.83
2022-11-14T17:41:17.251Z,8.10
2022-11-14T17:44:03.525Z,8.13
2022-11-14T17:46:48.765Z,8.77
2022-11-14T17:49:34.000Z,8.70
2022-11-14T17:52:19.238Z,8.40
2022-11-14T17:55:04.411Z,8.27
2022-11-14T17:57:49.245Z,8.80
2022-11-14T18:00:34.574Z,7.93
2022-11-14T18:03:20.479Z,8.20
2022-11-14T18:06:07.407Z,7.93
2022-11-14T18:08:52.642Z,8.67
2022-11-14T18:11:38.449Z,9.10
2022-11-14T18:14:23.804Z,12.10
2022-11-14T18:17:13.338Z,10.40
2022-11-14T18:20:00.670Z,9.13
2022-11-14T18:22:45.878Z,9.33
2022-11-14T18:25:31.421Z,8.33
2022-11-14T18:28:16.816Z,8.77
2022-11-14T18:31:03.387Z,8.30
2022-11-14T18:33:48.154Z,7.37
2022-11-14T18:36:33.590Z,6.47
2022-11-14T18:39:18.651Z,6.67
2022-11-14T18:42:04.102Z,6.87
2022-11-14T18:44:49.167Z,6.27
2022-11-14T18:47:34.040Z,5.93
2022-11-14T18:50:19.250Z,6.53
2022-11-14T18:53:04.176Z,6.70
2022-11-14T18:55:52.993Z,5.90
2022-11-14T18:58:39.864Z,6.13
2022-11-14T19:01:29.171Z,6.63
2022-11-14T19:04:17.198Z,6.33
2022-11-14T19:07:02.248Z,6.77
2022-11-14T19:09:47.021Z,6.60
2022-11-14T19:12:32.291Z,6.77
2022-11-14T19:15:17.438Z,6.70
2022-11-14T19:18:02.354Z,6.40
2022-11-14T19:21:02.149Z,6.23
2022-11-14T19:23:47.425Z,6.83
2022-11-14T19:26:32.932Z,6.27
2022-11-14T19:29:18.095Z,5.63
2022-11-14T19:32:03.318Z,6.27
2022-11-14T19:34:48.678Z,5.67
2022-11-14T19:37:33.579Z,5.47
2022-11-14T19:40:18.960Z,6.40
2022-11-14T19:43:07.173Z,6.80
2022-11-14T19:45:52.488Z,6.73
2022-11-14T19:48:37.804Z,8.27
2022-11-14T19:51:22.696Z,6.60
2022-11-14T19:54:10.057Z,7.10
2022-11-14T19:56:55.323Z,6.43
2022-11-14T19:59:40.113Z,5.90
2022-11-14T20:02:25.844Z,7.10
2022-11-14T20:05:11.526Z,6.57
2022-11-14T20:07:57.214Z,6.23
2022-11-14T20:10:48.404Z,7.03
2022-11-14T20:13:36.520Z,7.80
2022-11-14T20:16:27.923Z,7.03
2022-11-14T20:19:14.077Z,6.07
2022-11-14T20:21:59.046Z,6.30
2022-11-14T20:24:44.160Z,6.43
2022-11-14T20:27:29.322Z,6.90
2022-11-14T20:30:15.060Z,6.30
2022-11-14T20:33:00.299Z,5.87
2022-11-14T20:35:45.500Z,6.57
2022-11-14T20:38:31.455Z,6.33
2022-11-14T20:41:17.600Z,9.97
2022-11-14T20:44:03.504Z,10.93
2022-11-14T20:46:48.716Z,11.80
2022-11-14T20:49:33.894Z,8.47
2022-11-14T20:52:18.747Z,8.30
2022-11-14T20:55:11.406Z,9.73
2022-11-14T20:57:56.678Z,7.37
2022-11-14T21:00:41.401Z,5.80
2022-11-14T21:03:26.846Z,6.43
2022-11-14T21:06:12.788Z,5.90
2022-11-14T21:08:57.842Z,5.53
2022-11-14T21:11:42.877Z,5.70
2022-11-14T21:14:27.650Z,5.63
2022-11-14T21:17:12.659Z,5.00
2022-11-14T21:19:58.223Z,5.47
2022-11-14T21:22:43.177Z,4.83
2022-11-14T21:25:29.674Z,5.20
2022-11-14T21:28:14.533Z,5.20
2022-11-14T21:31:00.746Z,5.30
2022-11-14T21:33:47.531Z,4.90
2022-11-14T21:36:48.658Z,5.17
2022-11-14T21:39:33.625Z,4.90
2022-11-14T21:42:18.959Z,4.87
2022-11-14T21:45:04.264Z,4.93
2022-11-14T21:47:49.396Z,5.10
2022-11-14T21:50:34.313Z,5.00
2022-11-14T21:53:19.190Z,4.70
2022-11-14T21:56:15.005Z,5.07
2022-11-14T21:59:14.930Z,4.67
2022-11-14T22:02:18.941Z,4.57
2022-11-14T22:05:04.350Z,4.80
2022-11-14T22:07:49.163Z,4.43
2022-11-14T22:10:34.105Z,5.03
2022-11-14T22:13:19.225Z,4.30
2022-11-14T22:16:05.551Z,4.20
2022-11-14T22:18:54.682Z,4.77
2022-11-14T22:21:39.826Z,4.40
2022-11-14T22:24:24.899Z,5.20
2022-11-14T22:27:09.751Z,4.53
2022-11-14T22:29:54.574Z,4.70
2022-11-14T22:32:39.705Z,4.57
2022-11-14T22:35:24.848Z,4.30
2022-11-14T22:38:09.914Z,4.57
2022-11-14T22:40:56.431Z,4.43
2022-11-14T22:43:41.516Z,4.80
2022-11-14T22:46:27.217Z,5.23
2022-11-14T22:49:15.033Z,4.53
2022-11-14T22:52:02.419Z,4.80
2022-11-14T22:54:47.284Z,4.57
2022-11-14T22:57:32.214Z,4.60
2022-11-14T23:00:17.619Z,4.63
2022-11-14T23:03:02.294Z,4.63
2022-11-14T23:05:47.895Z,5.13
2022-11-14T23:08:34.092Z,4.40
2022-11-14T23:11:25.099Z,4.87
2022-11-14T23:14:13.298Z,4.87
2022-11-14T23:16:58.423Z,4.70
2022-11-14T23:19:43.604Z,4.63
2022-11-14T23:22:28.667Z,4.77
2022-11-14T23:25:13.536Z,4.57
2022-11-14T23:27:58.787Z,4.57
2022-11-14T23:30:43.583Z,4.73
2022-11-14T23:33:28.893Z,5.10
2022-11-14T23:36:14.709Z,4.57
2022-11-14T23:38:59.477Z,4.50
2022-11-14T23:41:44.361Z,4.67
2022-11-14T23:44:29.283Z,4.60
2022-11-14T23:47:14.117Z,5.00
2022-11-14T23:49:59.007Z,4.70
2022-11-14T23:52:44.103Z,5.00
2022-11-14T23:55:29.315Z,4.30
2022-11-14T23:58:14.398Z,4.57
